createdAt,value
2018-07-13T00:00:06.898Z,5.25
2018-07-13T00:02:37.325Z,8.00
2018-07-13T00:05:07.160Z,3.70
2018-07-13T00:07:37.194Z,5.37
2018-07-13T00:10:06.321Z,4.95
2018-07-13T00:12:36.679Z,5.67
2018-07-13T00:15:09.264Z,5.70
2018-07-13T00:17:39.697Z,4.93
2018-07-13T00:20:10.625Z,5.72
2018-07-13T00:35:35.996Z,6.23
2018-07-13T00:38:06.752Z,7.60
2018-07-13T00:40:36.351Z,5.00
2018-07-13T00:43:05.819Z,4.87
2018-07-13T00:45:36.943Z,5.97
2018-07-13T00:48:06.314Z,4.92
2018-07-13T00:50:36.387Z,9.13
2018-07-13T00:53:06.778Z,8.85
2018-07-13T00:55:37.212Z,5.33
2018-07-13T00:58:06.506Z,5.00
2018-07-13T01:00:35.614Z,5.80
2018-07-13T01:03:04.890Z,5.30
2018-07-13T01:05:35.631Z,5.77
2018-07-13T01:08:06.114Z,5.33
2018-07-13T01:10:36.868Z,5.30
2018-07-13T01:13:06.440Z,5.85
2018-07-13T01:15:37.050Z,5.33
2018-07-13T01:18:06.475Z,5.30
2018-07-13T01:20:36.852Z,5.10
2018-07-13T01:23:07.166Z,5.23
2018-07-13T01:25:37.945Z,5.62
2018-07-13T01:28:08.089Z,5.37
2018-07-13T01:30:38.317Z,5.30
2018-07-13T01:33:07.400Z,5.45
2018-07-13T01:35:36.479Z,5.90
2018-07-13T01:38:07.312Z,6.17
2018-07-13T01:40:36.771Z,5.10
2018-07-13T01:43:07.114Z,4.20
2018-07-13T01:45:37.971Z,5.42
2018-07-13T01:48:08.005Z,4.45
2018-07-13T01:50:38.397Z,4.65
2018-07-13T01:53:08.817Z,8.43
2018-07-13T01:55:38.797Z,9.30
2018-07-13T01:58:08.624Z,5.00
2018-07-13T02:00:38.866Z,6.65
2018-07-13T02:03:08.850Z,5.10
2018-07-13T02:05:39.656Z,6.60
2018-07-13T02:08:09.777Z,5.05
2018-07-13T02:10:39.402Z,5.07
2018-07-13T02:13:08.515Z,6.73
2018-07-13T02:15:37.524Z,5.80
2018-07-13T02:18:07.390Z,4.97
2018-07-13T02:20:37.740Z,6.40
2018-07-13T02:23:08.213Z,10.33
2018-07-13T02:25:38.689Z,5.90
2018-07-13T02:28:08.005Z,5.58
2018-07-13T02:30:37.120Z,5.92
2018-07-13T02:33:07.118Z,10.70
2018-07-13T02:35:36.151Z,6.17
2018-07-13T02:38:06.087Z,6.08
2018-07-13T02:40:35.690Z,7.05
2018-07-13T02:43:06.217Z,6.22
2018-07-13T02:45:36.705Z,5.80
2018-07-13T02:48:06.091Z,6.10
2018-07-13T02:50:36.439Z,7.00
2018-07-13T02:53:05.940Z,10.70
2018-07-13T02:55:35.949Z,9.48
2018-07-13T02:58:06.052Z,6.17
2018-07-13T03:00:35.292Z,5.90
2018-07-13T03:03:05.751Z,6.03
2018-07-13T03:05:35.964Z,9.33
2018-07-13T03:08:05.010Z,6.37
2018-07-13T03:10:34.677Z,7.70
2018-07-13T03:13:05.086Z,5.47
2018-07-13T03:15:34.913Z,5.63
2018-07-13T03:18:05.385Z,5.77
2018-07-13T03:20:36.355Z,5.33
2018-07-13T03:23:06.451Z,6.35
2018-07-13T03:25:36.863Z,6.50
2018-07-13T03:28:07.403Z,10.60
2018-07-13T03:30:38.020Z,7.77
2018-07-13T03:33:07.011Z,8.20
2018-07-13T03:35:37.535Z,5.80
2018-07-13T03:38:06.541Z,6.33
2018-07-13T03:40:37.284Z,6.70
2018-07-13T03:43:07.893Z,19.90
2018-07-13T03:45:36.917Z,6.70
2018-07-13T03:48:07.222Z,6.45
2018-07-13T03:50:37.695Z,7.92
2018-07-13T03:53:07.524Z,8.00
2018-07-13T03:55:36.709Z,5.95
2018-07-13T03:58:07.278Z,6.40
2018-07-13T04:00:36.603Z,7.60
2018-07-13T04:03:06.882Z,6.57
2018-07-13T04:05:37.520Z,6.00
2018-07-13T04:08:07.144Z,5.97
2018-07-13T04:10:37.799Z,9.80
2018-07-13T04:13:08.599Z,6.13
2018-07-13T04:15:39.327Z,9.30
2018-07-13T04:18:12.837Z,5.55
2018-07-13T04:20:43.307Z,6.60
2018-07-13T04:23:12.775Z,5.70
2018-07-13T04:25:42.590Z,6.40
2018-07-13T04:28:11.765Z,6.45
2018-07-13T04:30:42.661Z,7.50
2018-07-13T04:33:12.372Z,7.13
2018-07-13T04:35:43.446Z,8.30
2018-07-13T04:38:14.153Z,10.98
2018-07-13T04:40:44.600Z,7.70
2018-07-13T04:43:13.721Z,8.70
2018-07-13T04:45:44.573Z,8.67
2018-07-13T04:48:14.100Z,12.00
2018-07-13T04:50:43.499Z,11.80
2018-07-13T04:53:14.069Z,9.60
2018-07-13T04:55:43.461Z,8.23
2018-07-13T04:58:14.187Z,7.40
2018-07-13T05:00:44.207Z,8.40
2018-07-13T05:03:14.984Z,6.73
2018-07-13T05:05:44.165Z,7.27
2018-07-13T05:08:13.241Z,12.50
2018-07-13T05:10:42.772Z,9.00
2018-07-13T05:13:13.285Z,9.43
2018-07-13T05:15:42.793Z,7.93
2018-07-13T05:18:13.100Z,7.70
2018-07-13T05:20:57.879Z,8.00
2018-07-13T05:23:26.884Z,7.17
2018-07-13T05:25:57.496Z,7.07
2018-07-13T05:28:27.742Z,7.73
2018-07-13T05:30:58.031Z,8.63
2018-07-13T05:33:28.768Z,8.37
2018-07-13T05:35:58.501Z,10.10
2018-07-13T05:38:27.915Z,8.87
2018-07-13T05:40:56.983Z,8.23
2018-07-13T05:43:27.598Z,7.97
2018-07-13T05:45:57.366Z,7.87
2018-07-13T05:48:27.551Z,8.53
2018-07-13T05:50:57.849Z,7.60
2018-07-13T05:53:28.263Z,12.33
2018-07-13T05:55:58.857Z,7.17
2018-07-13T05:58:28.030Z,7.13
2018-07-13T06:00:57.106Z,6.60
2018-07-13T06:03:27.412Z,8.05
2018-07-13T06:05:57.894Z,7.03
2018-07-13T06:08:28.599Z,7.93
2018-07-13T06:10:59.596Z,8.27
2018-07-13T06:13:28.729Z,7.50
2018-07-13T06:15:58.104Z,11.20
2018-07-13T06:18:28.089Z,7.90
2018-07-13T06:20:58.722Z,7.63
2018-07-13T06:23:28.150Z,8.20
2018-07-13T06:25:58.898Z,7.40
2018-07-13T06:28:30.078Z,9.50
2018-07-13T06:30:59.116Z,8.63
2018-07-13T06:33:28.900Z,8.30
2018-07-13T06:35:58.355Z,8.20
2018-07-13T06:38:28.324Z,10.20
2018-07-13T06:40:58.824Z,8.58
2018-07-13T06:43:30.585Z,8.00
2018-07-13T06:46:01.110Z,6.40
2018-07-13T06:48:31.716Z,6.90
2018-07-13T06:51:00.779Z,7.10
2018-07-13T06:53:29.940Z,9.10
2018-07-13T06:55:59.558Z,9.40
2018-07-13T06:58:40.492Z,7.27
2018-07-13T07:01:10.048Z,7.45
2018-07-13T07:04:43.347Z,7.17
2018-07-13T07:07:27.688Z,6.60
2018-07-13T07:09:58.073Z,6.90
2018-07-13T07:13:07.480Z,35.83
2018-07-13T07:15:37.591Z,6.95
2018-07-13T07:18:07.322Z,7.83
2018-07-13T07:20:37.574Z,7.28
2018-07-13T07:23:08.531Z,6.43
2018-07-13T07:25:38.034Z,9.20
2018-07-13T07:28:08.118Z,5.95
2018-07-13T07:30:38.880Z,5.73
2018-07-13T07:33:09.541Z,6.20
2018-07-13T07:35:38.563Z,6.50
2018-07-13T07:38:08.019Z,5.93
2018-07-13T07:40:39.770Z,6.28
2018-07-13T07:43:10.269Z,6.03
2018-07-13T07:45:40.646Z,8.23
2018-07-13T07:48:09.730Z,8.80
2018-07-13T07:50:39.752Z,9.03
2018-07-13T07:53:10.480Z,5.13
2018-07-13T07:55:40.246Z,5.33
2018-07-13T07:58:10.756Z,13.20
2018-07-13T08:00:41.452Z,22.63
2018-07-13T08:03:10.934Z,11.93
2018-07-13T08:05:40.400Z,5.80
2018-07-13T08:08:10.435Z,5.70
2018-07-13T08:10:41.012Z,5.27
2018-07-13T08:13:10.189Z,4.72
2018-07-13T08:15:39.663Z,4.97
2018-07-13T08:18:10.427Z,4.90
2018-07-13T08:20:45.543Z,4.40
2018-07-13T08:23:15.303Z,4.03
2018-07-13T08:25:48.909Z,3.80
2018-07-13T08:28:20.306Z,3.60
2018-07-13T08:30:53.218Z,3.97
2018-07-13T08:33:22.575Z,8.47
2018-07-13T08:35:51.631Z,4.00
2018-07-13T08:38:21.628Z,8.00
2018-07-13T08:53:46.231Z,4.23
2018-07-13T08:56:16.814Z,4.87
2018-07-13T08:58:45.924Z,3.90
2018-07-13T09:01:14.955Z,5.33
2018-07-13T09:03:45.686Z,4.20
2018-07-13T09:06:14.752Z,4.00
2018-07-13T09:08:44.604Z,7.03
2018-07-13T09:11:13.650Z,6.33
2018-07-13T09:13:42.967Z,7.65
2018-07-13T09:16:13.309Z,4.22
2018-07-13T09:18:43.974Z,4.55
2018-07-13T09:21:14.321Z,2.90
2018-07-13T09:23:44.833Z,3.37
2018-07-13T09:26:13.890Z,4.65
2018-07-13T09:28:43.273Z,3.87
2018-07-13T09:31:14.021Z,3.50
2018-07-13T09:33:43.129Z,4.12
2018-07-13T09:36:12.793Z,4.33
2018-07-13T09:38:42.094Z,3.98
2018-07-13T09:54:06.658Z,16.63
2018-07-13T09:56:36.640Z,3.00
2018-07-13T09:59:06.052Z,3.73
2018-07-13T10:01:36.358Z,4.83
2018-07-13T10:04:06.331Z,4.70
2018-07-13T10:06:35.419Z,4.23
2018-07-13T10:09:05.076Z,3.87
2018-07-13T10:11:34.547Z,3.90
2018-07-13T10:14:05.153Z,4.00
2018-07-13T10:16:34.597Z,3.57
2018-07-13T10:19:05.403Z,3.77
2018-07-13T10:21:37.650Z,3.62
2018-07-13T10:24:07.826Z,10.10
2018-07-13T10:26:38.247Z,3.13
2018-07-13T10:29:17.500Z,3.87
2018-07-13T10:31:48.066Z,7.07
2018-07-13T10:34:19.489Z,5.17
2018-07-13T10:36:52.674Z,3.60
2018-07-13T10:39:23.580Z,2.90
2018-07-13T10:41:54.277Z,3.43
2018-07-13T10:44:24.750Z,3.33
2018-07-13T10:46:55.396Z,5.87
2018-07-13T10:49:26.159Z,3.00
2018-07-13T10:51:56.844Z,3.00
2018-07-13T10:54:27.188Z,4.20
2018-07-13T10:56:57.790Z,5.33
2018-07-13T10:59:28.031Z,2.53
2018-07-13T11:01:58.704Z,3.23
2018-07-13T11:04:30.034Z,2.60
2018-07-13T11:07:00.048Z,4.33
2018-07-13T11:09:30.079Z,3.27
2018-07-13T11:12:01.050Z,2.97
2018-07-13T11:14:31.410Z,2.50
2018-07-13T11:17:02.273Z,2.93
2018-07-13T11:19:33.071Z,2.90
2018-07-13T11:22:03.881Z,3.17
2018-07-13T11:24:34.476Z,2.80
2018-07-13T11:27:05.116Z,8.90
2018-07-13T11:29:35.775Z,2.40
2018-07-13T11:32:06.079Z,3.30
2018-07-13T11:34:36.901Z,8.00
2018-07-13T11:37:06.487Z,3.87
2018-07-13T11:39:36.703Z,4.15
2018-07-13T11:42:07.049Z,3.20
2018-07-13T11:44:37.545Z,3.02
2018-07-13T11:47:08.288Z,4.33
2018-07-13T11:49:38.220Z,5.07
2018-07-13T11:52:07.529Z,3.05
2018-07-13T11:54:37.802Z,3.30
2018-07-13T11:57:07.761Z,4.93
2018-07-13T11:59:38.471Z,3.07
2018-07-13T12:02:09.515Z,2.85
2018-07-13T12:04:38.702Z,3.00
2018-07-13T12:07:09.374Z,2.50
2018-07-13T12:09:40.010Z,2.97
2018-07-13T12:12:09.248Z,3.22
2018-07-13T12:14:39.912Z,3.40
2018-07-13T12:17:10.621Z,3.10
2018-07-13T12:19:39.817Z,3.23
2018-07-13T12:22:10.333Z,2.60
2018-07-13T12:24:40.955Z,2.90
2018-07-13T12:27:10.306Z,3.45
2018-07-13T12:29:40.705Z,2.90
2018-07-13T12:32:11.171Z,3.22
2018-07-13T12:34:40.513Z,4.07
2018-07-13T12:37:10.216Z,3.05
2018-07-13T12:39:41.263Z,3.00
2018-07-13T12:42:10.531Z,3.00
2018-07-13T12:44:39.786Z,2.80
2018-07-13T12:47:10.643Z,4.90
2018-07-13T12:49:41.257Z,3.10
2018-07-13T12:52:10.274Z,2.60
2018-07-13T12:54:41.380Z,2.20
2018-07-13T12:57:11.060Z,5.70
2018-07-13T12:59:40.370Z,3.97
2018-07-13T13:02:09.586Z,3.17
2018-07-13T13:17:33.949Z,4.63
2018-07-13T13:20:04.409Z,3.57
2018-07-13T13:22:34.797Z,3.33
2018-07-13T13:25:03.858Z,3.83
2018-07-13T13:27:33.510Z,2.90
2018-07-13T13:30:04.253Z,3.40
2018-07-13T13:32:33.558Z,3.03
2018-07-13T13:35:04.022Z,4.67
2018-07-13T13:37:34.401Z,3.00
2018-07-13T13:40:04.031Z,5.57
2018-07-13T13:42:34.745Z,7.33
2018-07-13T13:45:05.441Z,2.80
2018-07-13T13:47:35.561Z,3.05
2018-07-13T13:50:05.058Z,4.37
2018-07-13T13:52:34.144Z,3.73
2018-07-13T13:55:04.055Z,5.80
2018-07-13T13:57:34.768Z,2.73
2018-07-13T14:00:03.923Z,2.20
2018-07-13T14:02:34.574Z,4.37
2018-07-13T14:05:03.682Z,6.30
2018-07-13T14:07:33.585Z,5.93
2018-07-13T14:10:04.326Z,3.67
2018-07-13T14:12:34.697Z,3.10
2018-07-13T14:15:05.328Z,6.00
2018-07-13T14:17:35.006Z,3.70
2018-07-13T14:20:06.092Z,2.23
2018-07-13T14:22:35.206Z,2.50
2018-07-13T14:25:05.123Z,2.70
2018-07-13T14:27:34.896Z,2.77
2018-07-13T14:30:04.563Z,2.40
2018-07-13T14:32:34.479Z,2.60
2018-07-13T14:35:04.009Z,2.27
2018-07-13T14:37:33.413Z,2.30
2018-07-13T14:40:02.564Z,2.10
2018-07-13T14:42:31.654Z,3.72
2018-07-13T14:45:00.787Z,1.90
2018-07-13T14:47:32.465Z,3.03
2018-07-13T14:50:03.187Z,1.80
2018-07-13T14:52:32.546Z,2.17
2018-07-13T14:55:02.321Z,1.92
2018-07-13T14:57:31.715Z,2.47
2018-07-13T15:00:01.383Z,2.05
2018-07-13T15:02:31.940Z,2.62
2018-07-13T15:05:01.328Z,1.90
2018-07-13T15:07:31.633Z,3.37
2018-07-13T15:10:02.065Z,2.65
2018-07-13T15:12:32.211Z,1.80
2018-07-13T15:27:56.014Z,2.12
2018-07-13T15:30:26.765Z,1.90
2018-07-13T15:32:55.827Z,5.37
2018-07-13T15:35:26.436Z,2.50
2018-07-13T15:37:55.543Z,2.30
2018-07-13T15:40:26.176Z,3.00
2018-07-13T15:42:55.287Z,1.90
2018-07-13T15:45:25.145Z,2.80
2018-07-13T15:47:54.748Z,2.40
2018-07-13T15:50:25.169Z,2.25
2018-07-13T15:52:55.782Z,2.00
2018-07-13T15:55:29.585Z,2.08
2018-07-13T15:58:00.255Z,1.98
2018-07-13T16:00:30.598Z,2.30
2018-07-13T16:03:01.730Z,2.67
2018-07-13T16:05:32.167Z,2.35
2018-07-13T16:08:02.413Z,2.30
2018-07-13T16:10:32.118Z,1.82
2018-07-13T16:13:03.527Z,2.30
2018-07-13T16:15:33.829Z,2.10
2018-07-13T16:18:04.592Z,2.33
2018-07-13T16:20:35.899Z,2.70
2018-07-13T16:23:05.812Z,2.30
2018-07-13T16:25:35.285Z,3.00
2018-07-13T16:28:05.147Z,2.83
2018-07-13T16:30:34.337Z,2.27
2018-07-13T16:33:04.125Z,2.05
2018-07-13T16:35:34.016Z,2.20
2018-07-13T16:38:03.154Z,2.40
2018-07-13T16:40:34.614Z,2.50
2018-07-13T16:43:04.061Z,6.60
2018-07-13T16:45:33.231Z,5.53
2018-07-13T16:48:03.222Z,2.92
2018-07-13T16:50:33.853Z,3.30
2018-07-13T16:53:03.844Z,3.45
2018-07-13T16:55:33.791Z,2.85
2018-07-13T16:58:03.613Z,4.92
2018-07-13T17:00:33.809Z,4.20
2018-07-13T17:03:03.568Z,2.60
2018-07-13T17:05:33.778Z,2.85
2018-07-13T17:08:04.106Z,3.60
2018-07-13T17:10:35.189Z,2.43
2018-07-13T17:13:05.014Z,2.93
2018-07-13T17:15:34.130Z,3.23
2018-07-13T17:18:04.187Z,2.70
2018-07-13T17:20:34.663Z,3.83
2018-07-13T17:23:04.322Z,2.60
2018-07-13T17:25:34.604Z,7.40
2018-07-13T17:28:04.615Z,3.20
2018-07-13T17:30:35.739Z,4.03
2018-07-13T17:33:06.088Z,5.67
2018-07-13T17:35:36.420Z,2.90
2018-07-13T17:38:06.126Z,3.30
2018-07-13T17:40:36.611Z,3.47
2018-07-13T17:43:06.706Z,3.40
2018-07-13T17:45:36.116Z,4.45
2018-07-13T17:48:06.392Z,3.00
2018-07-13T17:50:36.733Z,3.17
2018-07-13T17:53:06.863Z,4.00
2018-07-13T17:55:37.820Z,3.50
2018-07-13T17:58:08.167Z,3.50
2018-07-13T18:00:38.243Z,4.00
2018-07-13T18:03:08.750Z,4.47
2018-07-13T18:05:39.337Z,3.83
2018-07-13T18:08:09.973Z,3.47
2018-07-13T18:10:40.581Z,8.43
2018-07-13T18:13:10.892Z,13.18
2018-07-13T18:15:39.964Z,16.87
2018-07-13T18:18:10.153Z,9.03
2018-07-13T18:20:40.696Z,4.93
2018-07-13T18:23:11.861Z,7.83
2018-07-13T18:25:42.548Z,6.77
2018-07-13T18:28:12.894Z,3.73
2018-07-13T18:30:43.229Z,3.90
2018-07-13T18:33:13.850Z,3.20
2018-07-13T18:35:43.664Z,4.27
2018-07-13T18:38:14.114Z,3.00
2018-07-13T18:40:44.131Z,4.60
2018-07-13T18:43:14.731Z,9.70
2018-07-13T18:45:45.366Z,7.42
2018-07-13T18:48:15.111Z,6.62
2018-07-13T18:50:45.228Z,4.17
2018-07-13T18:53:15.978Z,3.65
2018-07-13T18:55:46.794Z,4.00
2018-07-13T18:58:17.216Z,5.20
2018-07-13T19:00:47.136Z,5.03
2018-07-13T19:03:47.424Z,4.60
2018-07-13T19:06:17.814Z,4.37
2018-07-13T19:08:48.051Z,7.40
2018-07-13T19:11:18.539Z,6.22
2018-07-13T19:13:49.096Z,5.10
2018-07-13T19:16:19.538Z,5.90
2018-07-13T19:18:49.927Z,5.12
2018-07-13T19:21:18.975Z,5.47
2018-07-13T19:23:48.249Z,9.18
2018-07-13T19:26:17.381Z,23.50
2018-07-13T19:28:47.256Z,32.98
2018-07-13T19:31:17.971Z,50.47
2018-07-13T19:33:47.845Z,50.30
2018-07-13T19:36:17.067Z,59.20
2018-07-13T19:38:47.748Z,29.40
2018-07-13T19:41:18.518Z,32.67
2018-07-13T19:43:48.831Z,33.42
2018-07-13T19:46:19.037Z,30.00
2018-07-13T19:48:49.737Z,21.73
2018-07-13T19:51:20.181Z,25.07
2018-07-13T19:53:51.700Z,10.88
2018-07-13T19:56:23.471Z,9.95
2018-07-13T19:58:54.152Z,7.03
2018-07-13T20:01:24.590Z,6.10
2018-07-13T20:03:55.089Z,4.95
2018-07-13T20:06:25.466Z,5.57
2018-07-13T20:08:55.951Z,4.77
2018-07-13T20:11:26.140Z,5.53
2018-07-13T20:13:56.352Z,5.47
2018-07-13T20:16:26.691Z,6.93
2018-07-13T20:18:57.331Z,5.20
2018-07-13T20:21:26.708Z,8.10
2018-07-13T20:23:57.415Z,15.60
2018-07-13T20:26:28.062Z,4.33
2018-07-13T20:28:57.858Z,5.67
2018-07-13T20:31:27.869Z,10.70
2018-07-13T20:33:56.978Z,13.70
2018-07-13T20:36:27.250Z,8.90
2018-07-13T20:38:57.588Z,13.23
2018-07-13T20:41:27.745Z,11.53
2018-07-13T20:43:57.026Z,7.00
2018-07-13T20:46:26.403Z,6.93
2018-07-13T20:48:55.574Z,7.93
2018-07-13T20:51:25.517Z,10.10
2018-07-13T20:53:57.443Z,6.47
2018-07-13T20:56:27.593Z,7.10
2018-07-13T20:58:58.881Z,5.33
2018-07-13T21:01:29.389Z,5.30
2018-07-13T21:03:58.508Z,7.80
2018-07-13T21:06:27.842Z,8.07
2018-07-13T21:08:58.685Z,5.23
2018-07-13T21:11:28.220Z,5.63
2018-07-13T21:13:57.979Z,7.47
2018-07-13T21:16:28.474Z,7.93
2018-07-13T21:18:59.060Z,8.40
2018-07-13T21:21:29.300Z,5.03
2018-07-13T21:23:58.397Z,5.00
2018-07-13T21:26:28.591Z,6.00
2018-07-13T21:28:57.645Z,6.63
2018-07-13T21:31:28.338Z,7.40
2018-07-13T21:33:57.978Z,8.70
2018-07-13T21:36:27.833Z,10.80
2018-07-13T21:38:58.881Z,6.30
2018-07-13T21:41:29.654Z,5.90
2018-07-13T21:44:00.046Z,6.20
2018-07-13T21:46:30.606Z,7.27
2018-07-13T21:49:01.143Z,5.47
2018-07-13T21:51:32.262Z,6.60
2018-07-13T21:54:01.763Z,6.00
2018-07-13T21:56:31.998Z,11.23
2018-07-13T21:59:01.496Z,5.93
2018-07-13T22:01:31.499Z,7.90
2018-07-13T22:04:01.875Z,7.50
2018-07-13T22:06:30.946Z,8.60
2018-07-13T22:09:00.321Z,6.90
2018-07-13T22:11:30.248Z,7.87
2018-07-13T22:14:00.565Z,6.73
2018-07-13T22:16:30.876Z,6.60
2018-07-13T22:19:00.880Z,6.60
2018-07-13T22:21:31.153Z,6.47
2018-07-13T22:24:01.564Z,11.15
2018-07-13T22:26:31.826Z,8.07
2018-07-13T22:29:02.594Z,7.70
2018-07-13T22:31:33.309Z,5.47
2018-07-13T22:34:03.816Z,9.73
2018-07-13T22:36:34.409Z,9.57
2018-07-13T22:39:06.426Z,5.67
2018-07-13T22:41:36.920Z,7.30
2018-07-13T22:44:07.562Z,7.67
2018-07-13T22:46:39.016Z,7.13
2018-07-13T22:49:09.154Z,6.07
2018-07-13T22:51:39.508Z,6.00
2018-07-13T22:54:09.498Z,10.50
2018-07-13T22:56:39.323Z,7.83
2018-07-13T22:59:10.087Z,7.40
2018-07-13T23:01:40.455Z,6.03
2018-07-13T23:04:10.928Z,7.37
2018-07-13T23:06:41.856Z,8.50
2018-07-13T23:09:12.232Z,5.80
2018-07-13T23:11:42.973Z,6.63
2018-07-13T23:14:13.588Z,6.67
2018-07-13T23:16:44.356Z,8.80
2018-07-13T23:19:13.931Z,6.35
2018-07-13T23:21:43.720Z,7.05
2018-07-13T23:24:14.535Z,5.70
2018-07-13T23:26:44.166Z,6.20
2018-07-13T23:29:14.893Z,7.53
2018-07-13T23:31:44.088Z,7.63
2018-07-13T23:34:14.890Z,8.87
2018-07-13T23:36:44.147Z,5.78
2018-07-13T23:39:13.295Z,8.17
2018-07-13T23:41:42.398Z,5.90
2018-07-13T23:44:12.452Z,8.17
2018-07-13T23:46:43.574Z,5.97
2018-07-13T23:49:13.364Z,14.68
2018-07-13T23:51:44.086Z,5.45
2018-07-13T23:54:13.162Z,6.65
2018-07-13T23:56:43.618Z,10.15
2018-07-13T23:59:13.804Z,8.68
